createdAt,value
2023-03-01T00:04:38.254Z,50.04
2023-03-01T00:09:41.177Z,50.09
2023-03-01T00:14:42.839Z,50.21
2023-03-01T00:19:44.246Z,50.45
2023-03-01T00:24:45.953Z,50.57
2023-03-01T00:29:47.453Z,50.36
2023-03-01T00:34:55.432Z,50.56
2023-03-01T00:39:56.949Z,50.07
2023-03-01T00:44:59.020Z,50.13
2023-03-01T00:50:00.532Z,50.37
2023-03-01T00:55:02.370Z,50.38
2023-03-01T01:00:06.393Z,50.76
2023-03-01T01:05:08.308Z,50.71
2023-03-01T01:10:13.792Z,50.92
2023-03-01T01:15:17.523Z,50.67
2023-03-01T01:20:20.525Z,50.95
2023-03-01T01:25:22.644Z,51.29
2023-03-01T01:30:24.105Z,51.17
2023-03-01T01:35:25.817Z,51.44
2023-03-01T01:40:27.296Z,51.41
2023-03-01T01:45:35.151Z,51.48
2023-03-01T01:50:39.759Z,51.14
2023-03-01T01:55:45.824Z,51.51
2023-03-01T02:00:48.684Z,51.02
2023-03-01T02:05:58.089Z,50.97
2023-03-01T02:11:00.681Z,50.87
2023-03-01T02:16:09.241Z,51.05
2023-03-01T02:21:35.655Z,51.24
2023-03-01T02:26:50.115Z,51.32
2023-03-01T02:31:54.647Z,51.40
2023-03-01T02:37:00.930Z,51.02
2023-03-01T02:42:04.936Z,51.12
2023-03-01T02:47:06.996Z,51.38
2023-03-01T02:52:41.882Z,51.82
2023-03-01T02:57:46.275Z,52.05
2023-03-01T03:02:50.189Z,51.96
2023-03-01T03:07:52.535Z,51.91
2023-03-01T03:12:57.038Z,52.15
2023-03-01T03:18:00.175Z,52.26
2023-03-01T03:23:02.095Z,52.49
2023-03-01T03:28:10.843Z,52.56
2023-03-01T03:33:13.757Z,52.46
2023-03-01T03:38:17.905Z,52.86
2023-03-01T03:43:23.414Z,52.92
2023-03-01T03:48:25.875Z,53.17
2023-03-01T03:53:30.253Z,52.89
2023-03-01T03:58:31.917Z,53.11
2023-03-01T04:03:34.590Z,53.07
2023-03-01T04:08:36.043Z,52.88
2023-03-01T04:13:37.474Z,53.22
2023-03-01T04:18:39.103Z,53.38
2023-03-01T04:23:41.936Z,53.72
2023-03-01T04:28:47.454Z,53.67
2023-03-01T04:33:55.312Z,53.63
2023-03-01T04:38:57.258Z,53.89
2023-03-01T04:44:01.010Z,53.80
2023-03-01T04:49:03.801Z,53.31
2023-03-01T04:54:06.319Z,53.65
2023-03-01T04:59:09.435Z,53.88
2023-03-01T05:04:14.456Z,53.93
2023-03-01T05:09:16.169Z,53.93
2023-03-01T05:14:17.636Z,54.56
2023-03-01T05:19:23.786Z,54.23
2023-03-01T05:24:25.623Z,54.26
2023-03-01T05:29:29.107Z,53.63
2023-03-01T05:34:36.921Z,54.23
2023-03-01T05:39:38.486Z,54.03
2023-03-01T05:44:39.925Z,53.69
2023-03-01T05:49:41.612Z,54.11
2023-03-01T05:54:43.093Z,53.85
2023-03-01T05:59:44.725Z,53.64
2023-03-01T06:04:46.561Z,54.08
2023-03-01T06:09:48.134Z,54.06
2023-03-01T06:14:49.579Z,54.30
2023-03-01T06:19:51.109Z,54.17
2023-03-01T06:24:52.557Z,54.36
2023-03-01T06:29:54.307Z,54.51
2023-03-01T06:34:55.888Z,54.47
2023-03-01T06:39:59.097Z,53.99
2023-03-01T06:45:00.456Z,53.60
2023-03-01T06:50:03.139Z,53.83
2023-03-01T06:55:05.864Z,53.45
2023-03-01T07:00:08.958Z,58.49
2023-03-01T07:05:11.768Z,52.82
2023-03-01T07:10:14.624Z,52.64
2023-03-01T07:15:16.262Z,53.11
2023-03-01T07:20:19.545Z,53.33
2023-03-01T07:25:21.405Z,53.42
2023-03-01T07:30:23.663Z,53.43
2023-03-01T07:35:27.730Z,53.40
2023-03-01T07:40:29.864Z,53.49
2023-03-01T07:45:31.779Z,53.48
2023-03-01T07:50:33.516Z,53.60
2023-03-01T07:55:34.995Z,53.56
2023-03-01T08:00:36.638Z,53.78
2023-03-01T08:05:38.680Z,52.45
2023-03-01T08:10:40.147Z,51.81
2023-03-01T08:15:41.623Z,50.95
2023-03-01T08:20:43.252Z,50.58
2023-03-01T08:25:44.861Z,49.98
2023-03-01T08:30:46.441Z,49.54
2023-03-01T08:35:47.838Z,49.15
2023-03-01T08:40:51.881Z,49.08
2023-03-01T08:45:57.669Z,48.72
2023-03-01T08:51:08.670Z,47.68
2023-03-01T08:56:10.941Z,47.18
2023-03-01T09:01:14.992Z,46.80
2023-03-01T09:06:18.557Z,46.32
2023-03-01T09:11:22.710Z,45.10
2023-03-01T09:16:25.396Z,44.66
2023-03-01T09:21:39.555Z,44.37
2023-03-01T09:26:42.102Z,43.63
2023-03-01T09:31:44.280Z,42.72
2023-03-01T09:36:45.604Z,42.95
2023-03-01T09:42:04.822Z,42.09
2023-03-01T09:47:13.602Z,41.47
2023-03-01T09:52:35.490Z,41.37
2023-03-01T09:58:23.112Z,40.54
2023-03-01T10:03:36.457Z,38.72
2023-03-01T10:09:12.908Z,37.35
2023-03-01T10:14:33.283Z,35.17
2023-03-01T10:19:39.789Z,30.84
2023-03-01T10:24:41.285Z,28.99
2023-03-01T10:30:21.113Z,27.87
2023-03-01T10:35:27.111Z,29.76
2023-03-01T10:40:28.618Z,29.98
2023-03-01T10:45:35.730Z,29.14
2023-03-01T10:50:42.246Z,26.15
2023-03-01T10:55:44.903Z,22.92
2023-03-01T11:01:06.724Z,20.83
2023-03-01T11:06:13.905Z,20.13
2023-03-01T11:11:32.744Z,19.36
2023-03-01T11:16:39.963Z,18.72
2023-03-01T11:21:49.190Z,18.35
2023-03-01T11:26:56.182Z,17.21
2023-03-01T11:32:02.390Z,16.55
2023-03-01T11:37:13.553Z,15.09
2023-03-01T11:42:29.041Z,14.47
2023-03-01T11:48:08.809Z,13.56
2023-03-01T11:53:37.746Z,13.25
2023-03-01T11:59:09.123Z,12.88
2023-03-01T12:04:29.323Z,12.45
2023-03-01T12:09:52.346Z,12.17
2023-03-01T12:15:01.759Z,11.89
2023-03-01T12:20:18.975Z,13.04
2023-03-01T12:25:35.903Z,12.05
2023-03-01T12:30:49.856Z,10.59
2023-03-01T12:36:12.160Z,9.93
2023-03-01T12:41:25.831Z,10.50
2023-03-01T12:46:54.174Z,9.48
2023-03-01T12:52:10.455Z,9.82
2023-03-01T12:57:57.116Z,9.51
2023-03-01T13:03:37.110Z,9.03
2023-03-01T13:08:50.811Z,9.09
2023-03-01T13:13:56.962Z,8.93
2023-03-01T13:19:16.836Z,9.37
2023-03-01T13:24:29.339Z,9.60
2023-03-01T13:29:51.953Z,9.52
2023-03-01T13:34:59.352Z,10.10
2023-03-01T13:40:06.066Z,9.91
2023-03-01T13:45:43.588Z,9.54
2023-03-01T13:51:02.687Z,9.86
2023-03-01T13:56:13.025Z,10.11
2023-03-01T14:01:31.891Z,9.81
2023-03-01T14:06:36.819Z,10.20
2023-03-01T14:11:57.011Z,10.07
2023-03-01T14:17:22.532Z,9.94
2023-03-01T14:22:30.753Z,9.98
2023-03-01T14:27:43.740Z,10.22
2023-03-01T14:32:56.378Z,10.04
2023-03-01T14:37:58.558Z,10.51
2023-03-01T14:43:02.734Z,10.66
2023-03-01T14:48:07.043Z,10.66
2023-03-01T14:53:18.816Z,11.30
2023-03-01T14:58:25.895Z,11.46
2023-03-01T15:03:43.751Z,13.72
2023-03-01T15:08:52.522Z,14.39
2023-03-01T15:13:55.342Z,17.30
2023-03-01T15:19:07.158Z,19.31
2023-03-01T15:24:12.923Z,20.92
2023-03-01T15:29:24.077Z,21.70
2023-03-01T15:34:33.333Z,22.96
2023-03-01T15:39:40.767Z,23.22
2023-03-01T15:44:44.441Z,24.01
2023-03-01T15:49:54.881Z,24.57
2023-03-01T15:55:00.414Z,25.41
2023-03-01T16:00:02.238Z,25.71
2023-03-01T16:05:04.587Z,26.40
2023-03-01T16:10:07.005Z,27.24
2023-03-01T16:15:26.683Z,27.70
2023-03-01T16:20:32.773Z,27.76
2023-03-01T16:25:36.483Z,28.23
2023-03-01T16:30:40.579Z,28.55
2023-03-01T16:35:45.149Z,28.83
2023-03-01T16:40:49.333Z,29.26
2023-03-01T16:45:50.969Z,29.36
2023-03-01T16:51:02.537Z,29.72
2023-03-01T16:56:06.537Z,30.08
2023-03-01T17:01:11.931Z,30.63
2023-03-01T17:06:16.739Z,30.99
2023-03-01T17:11:18.918Z,31.37
2023-03-01T17:16:21.502Z,31.47
2023-03-01T17:21:23.189Z,32.18
2023-03-01T17:26:24.966Z,32.97
2023-03-01T17:31:26.677Z,33.07
2023-03-01T17:36:28.108Z,33.74
2023-03-01T17:41:29.817Z,34.37
2023-03-01T17:46:31.399Z,34.11
2023-03-01T17:51:33.289Z,34.29
2023-03-01T17:56:38.666Z,34.85
2023-03-01T18:01:42.580Z,35.78
2023-03-01T18:06:44.274Z,35.09
2023-03-01T18:11:47.836Z,35.37
2023-03-01T18:16:49.506Z,35.45
2023-03-01T18:21:51.294Z,36.71
2023-03-01T18:26:52.726Z,36.71
2023-03-01T18:31:54.667Z,35.91
2023-03-01T18:37:08.694Z,35.97
2023-03-01T18:42:11.411Z,36.18
2023-03-01T18:47:13.037Z,36.71
2023-03-01T18:52:14.449Z,36.70
2023-03-01T18:57:15.851Z,37.26
2023-03-01T19:02:17.593Z,37.28
2023-03-01T19:07:19.009Z,37.50
2023-03-01T19:12:21.565Z,37.50
2023-03-01T19:17:30.994Z,37.41
2023-03-01T19:22:32.802Z,37.53
2023-03-01T19:27:35.479Z,38.06
2023-03-01T19:32:36.905Z,38.40
2023-03-01T19:37:38.357Z,38.02
2023-03-01T19:42:39.729Z,38.51
2023-03-01T19:47:41.406Z,39.39
2023-03-01T19:52:42.819Z,39.66
2023-03-01T19:57:44.238Z,40.49
2023-03-01T20:02:46.140Z,40.96
2023-03-01T20:07:48.141Z,40.94
2023-03-01T20:12:49.777Z,41.01
2023-03-01T20:17:51.486Z,41.02
2023-03-01T20:22:53.067Z,41.89
2023-03-01T20:27:54.791Z,41.84
2023-03-01T20:32:56.280Z,42.20
2023-03-01T20:37:58.548Z,42.16
2023-03-01T20:43:00.928Z,42.38
2023-03-01T20:48:02.625Z,42.19
2023-03-01T20:53:04.269Z,42.61
2023-03-01T20:58:05.684Z,42.76
2023-03-01T21:03:07.529Z,42.86
2023-03-01T21:08:10.523Z,43.04
2023-03-01T21:13:12.166Z,43.14
2023-03-01T21:18:14.073Z,43.15
2023-03-01T21:23:15.844Z,43.14
2023-03-01T21:28:17.546Z,43.23
2023-03-01T21:33:18.983Z,43.44
2023-03-01T21:38:20.811Z,43.36
2023-03-01T21:43:23.047Z,43.20
2023-03-01T21:48:24.676Z,43.88
2023-03-01T21:53:28.984Z,43.89
2023-03-01T21:58:31.825Z,43.74
2023-03-01T22:03:33.853Z,44.02
2023-03-01T22:08:35.418Z,43.99
2023-03-01T22:13:37.119Z,43.73
2023-03-01T22:18:38.547Z,43.78
2023-03-01T22:23:40.852Z,43.78
2023-03-01T22:28:44.152Z,44.06
2023-03-01T22:33:47.493Z,44.11
2023-03-01T22:38:49.242Z,44.17
2023-03-01T22:43:50.653Z,44.29
2023-03-01T22:48:52.675Z,43.97
2023-03-01T22:53:54.958Z,44.40
2023-03-01T22:59:01.134Z,44.82
2023-03-01T23:04:02.764Z,44.49
2023-03-01T23:09:06.816Z,45.16
2023-03-01T23:14:08.343Z,45.28
2023-03-01T23:19:10.058Z,45.53
2023-03-01T23:24:11.649Z,45.74
2023-03-01T23:29:13.065Z,45.69
2023-03-01T23:34:14.850Z,45.72
2023-03-01T23:39:16.368Z,45.67
2023-03-01T23:44:20.655Z,45.78
2023-03-01T23:49:23.233Z,46.26
2023-03-01T23:54:25.842Z,45.93
2023-03-01T23:59:27.299Z,46.35
